createdAt,value
2022-07-25T00:00:47.364Z,7.43
2022-07-25T00:05:50.916Z,7.80
2022-07-25T00:10:53.723Z,7.53
2022-07-25T00:15:56.858Z,8.15
2022-07-25T00:20:59.827Z,8.07
2022-07-25T00:26:02.588Z,7.85
2022-07-25T00:31:05.396Z,7.60
2022-07-25T00:36:09.687Z,7.80
2022-07-25T00:41:12.905Z,8.00
2022-07-25T00:46:18.956Z,7.87
2022-07-25T00:51:22.346Z,7.60
2022-07-25T00:56:25.496Z,7.23
2022-07-25T01:01:28.322Z,8.85
2022-07-25T01:06:31.324Z,8.35
2022-07-25T01:11:34.315Z,6.43
2022-07-25T01:16:37.222Z,8.15
2022-07-25T01:21:41.410Z,8.60
2022-07-25T01:26:44.120Z,7.72
2022-07-25T01:31:46.772Z,6.30
2022-07-25T01:36:49.545Z,9.10
2022-07-25T01:41:52.246Z,7.35
2022-07-25T01:46:55.045Z,10.00
2022-07-25T01:51:57.743Z,7.47
2022-07-25T01:57:00.465Z,7.93
2022-07-25T02:02:03.695Z,9.47
2022-07-25T02:07:06.494Z,10.05
2022-07-25T02:12:09.778Z,6.43
2022-07-25T02:17:12.692Z,8.25
2022-07-25T02:22:15.586Z,10.25
2022-07-25T02:27:18.294Z,7.00
2022-07-25T02:32:21.067Z,8.98
2022-07-25T02:37:23.776Z,7.90
2022-07-25T02:42:26.524Z,7.97
2022-07-25T02:47:29.873Z,8.10
2022-07-25T02:52:33.206Z,7.30
2022-07-25T02:57:36.616Z,8.50
2022-07-25T03:02:39.308Z,7.70
2022-07-25T03:07:43.758Z,7.70
2022-07-25T03:12:46.913Z,9.38
2022-07-25T03:17:49.776Z,7.63
2022-07-25T03:22:52.523Z,8.48
2022-07-25T03:27:55.225Z,8.17
2022-07-25T03:32:57.970Z,10.25
2022-07-25T03:38:00.636Z,10.40
2022-07-25T03:43:03.445Z,8.40
2022-07-25T03:48:06.466Z,8.77
2022-07-25T03:53:10.286Z,10.00
2022-07-25T03:58:13.170Z,8.82
2022-07-25T04:03:15.946Z,7.80
2022-07-25T04:08:18.745Z,9.13
2022-07-25T04:13:21.475Z,9.88
2022-07-25T04:18:27.429Z,11.30
2022-07-25T04:23:32.065Z,7.25
2022-07-25T04:28:35.056Z,8.35
2022-07-25T04:33:38.510Z,7.80
2022-07-25T04:38:41.306Z,10.30
2022-07-25T04:43:48.516Z,8.77
2022-07-25T04:48:51.991Z,8.88
2022-07-25T04:53:54.831Z,10.00
2022-07-25T04:59:00.589Z,10.73
2022-07-25T05:04:06.485Z,10.82
2022-07-25T05:09:09.455Z,9.53
2022-07-25T05:14:12.186Z,11.57
2022-07-25T05:19:15.197Z,9.25
2022-07-25T05:24:17.963Z,9.13
2022-07-25T05:29:20.817Z,8.80
2022-07-25T05:34:24.150Z,10.97
2022-07-25T05:39:26.979Z,12.60
2022-07-25T05:44:29.840Z,8.88
2022-07-25T05:49:32.740Z,9.70
2022-07-25T05:54:35.936Z,9.07
2022-07-25T05:59:38.778Z,8.47
2022-07-25T06:04:41.753Z,10.50
2022-07-25T06:09:44.915Z,8.80
2022-07-25T06:14:47.736Z,9.43
2022-07-25T06:19:50.545Z,7.97
2022-07-25T06:24:53.299Z,7.70
2022-07-25T06:29:56.036Z,9.27
2022-07-25T06:34:59.603Z,8.32
2022-07-25T06:40:02.545Z,8.40
2022-07-25T06:45:06.747Z,8.18
2022-07-25T06:50:12.765Z,7.03
2022-07-25T06:55:16.685Z,7.28
2022-07-25T07:00:19.536Z,7.03
2022-07-25T07:05:23.834Z,6.80
2022-07-25T07:10:28.338Z,7.07
2022-07-25T07:15:31.140Z,6.80
2022-07-25T07:20:34.254Z,9.50
2022-07-25T07:25:37.371Z,6.97
2022-07-25T07:31:13.546Z,6.23
2022-07-25T07:36:03.293Z,6.20
2022-07-25T07:41:06.246Z,5.00
2022-07-25T07:46:09.100Z,7.22
2022-07-25T07:51:11.949Z,5.28
2022-07-25T07:56:16.303Z,6.07
2022-07-25T08:01:19.200Z,6.55
2022-07-25T08:06:22.085Z,6.23
2022-07-25T08:11:26.045Z,6.22
2022-07-25T08:16:29.017Z,5.28
2022-07-25T08:21:31.858Z,8.03
2022-07-25T08:26:34.683Z,5.63
2022-07-25T08:31:37.616Z,8.27
2022-07-25T08:36:40.491Z,4.38
2022-07-25T08:41:44.246Z,4.35
2022-07-25T08:46:48.003Z,5.50
2022-07-25T08:51:51.943Z,4.22
2022-07-25T08:56:54.935Z,4.20
2022-07-25T09:01:58.776Z,4.20
2022-07-25T09:07:08.049Z,4.40
2022-07-25T09:12:11.235Z,4.83
2022-07-25T09:17:22.578Z,4.30
2022-07-25T09:22:26.460Z,3.97
2022-07-25T09:27:34.744Z,4.55
2022-07-25T09:32:37.556Z,4.15
2022-07-25T09:37:40.517Z,4.00
2022-07-25T09:42:46.404Z,3.40
2022-07-25T09:47:56.489Z,4.43
2022-07-25T09:53:03.040Z,4.97
2022-07-25T09:58:05.875Z,5.00
2022-07-25T10:03:39.734Z,3.40
2022-07-25T10:08:43.223Z,4.03
2022-07-25T10:13:46.035Z,4.17
2022-07-25T10:18:53.609Z,3.47
2022-07-25T10:24:05.586Z,3.53
2022-07-25T10:29:13.376Z,3.57
2022-07-25T10:34:16.205Z,5.05
2022-07-25T10:39:21.758Z,3.87
2022-07-25T10:44:30.804Z,3.83
2022-07-25T10:49:38.843Z,4.47
2022-07-25T10:54:59.286Z,5.40
2022-07-25T11:00:09.618Z,3.70
2022-07-25T11:05:12.428Z,4.27
2022-07-25T11:10:15.237Z,4.78
2022-07-25T11:15:24.069Z,4.45
2022-07-25T11:20:26.928Z,4.67
2022-07-25T11:25:30.734Z,4.50
2022-07-25T11:30:33.560Z,6.70
2022-07-25T11:35:36.526Z,3.85
2022-07-25T11:40:48.601Z,3.70
2022-07-25T11:45:58.771Z,3.73
2022-07-25T11:51:18.574Z,3.90
2022-07-25T12:01:47.866Z,4.35
2022-07-25T12:06:51.296Z,4.10
2022-07-25T12:12:04.158Z,3.63
2022-07-25T12:17:07.056Z,3.67
2022-07-25T12:22:09.911Z,3.87
2022-07-25T12:27:12.684Z,5.68
2022-07-25T12:32:15.465Z,3.72
2022-07-25T12:37:18.295Z,5.23
2022-07-25T12:42:21.450Z,4.75
2022-07-25T12:47:25.465Z,5.73
2022-07-25T12:52:28.558Z,4.03
2022-07-25T12:57:31.535Z,4.50
2022-07-25T13:02:34.486Z,4.30
2022-07-25T13:07:37.938Z,4.25
2022-07-25T13:12:40.786Z,5.07
2022-07-25T13:17:43.595Z,4.35
2022-07-25T13:22:46.399Z,3.83
2022-07-25T13:27:49.762Z,3.60
2022-07-25T13:32:53.035Z,3.58
2022-07-25T13:37:55.891Z,4.67
2022-07-25T13:42:58.970Z,4.72
2022-07-25T13:48:27.926Z,4.40
2022-07-25T13:53:29.988Z,3.90
2022-07-25T13:58:33.491Z,4.20
2022-07-25T14:03:37.186Z,3.87
2022-07-25T14:08:41.489Z,3.55
2022-07-25T14:13:45.580Z,4.75
2022-07-25T14:18:48.665Z,4.30
2022-07-25T14:23:51.705Z,3.72
2022-07-25T14:28:56.970Z,3.60
2022-07-25T14:33:59.992Z,3.60
2022-07-25T14:39:05.273Z,4.00
2022-07-25T14:44:08.820Z,4.20
2022-07-25T14:49:15.258Z,3.97
2022-07-25T14:54:18.758Z,3.80
2022-07-25T14:59:21.935Z,4.53
2022-07-25T15:04:25.587Z,3.90
2022-07-25T15:09:28.561Z,4.30
2022-07-25T15:14:31.369Z,3.92
2022-07-25T15:19:34.117Z,3.77
2022-07-25T15:25:06.360Z,4.95
2022-07-25T15:30:00.024Z,3.92
2022-07-25T15:35:02.744Z,4.17
2022-07-25T15:40:06.397Z,3.85
2022-07-25T15:45:32.166Z,3.90
2022-07-25T15:50:32.422Z,4.50
2022-07-25T15:55:35.291Z,5.50
2022-07-25T16:00:38.987Z,3.80
2022-07-25T16:05:43.385Z,4.03
2022-07-25T16:10:46.380Z,4.67
2022-07-25T16:15:49.309Z,3.95
2022-07-25T16:20:52.102Z,4.90
2022-07-25T16:25:54.932Z,4.33
2022-07-25T16:30:57.761Z,5.47
2022-07-25T16:36:00.563Z,4.23
2022-07-25T16:41:03.585Z,5.13
2022-07-25T16:46:08.045Z,6.43
2022-07-25T16:51:10.955Z,3.80
2022-07-25T16:56:13.806Z,4.45
2022-07-25T17:01:17.077Z,5.27
2022-07-25T17:06:20.111Z,4.00
2022-07-25T17:11:23.141Z,5.63
2022-07-25T17:16:26.229Z,4.80
2022-07-25T17:21:29.472Z,3.90
2022-07-25T17:26:32.524Z,4.33
2022-07-25T17:31:36.642Z,4.68
2022-07-25T17:36:40.198Z,6.00
2022-07-25T17:41:43.085Z,5.13
2022-07-25T17:46:45.946Z,4.60
2022-07-25T17:51:48.759Z,4.00
2022-07-25T17:56:51.511Z,4.45
2022-07-25T18:01:54.447Z,6.15
2022-07-25T18:06:57.381Z,5.40
2022-07-25T18:12:00.528Z,6.03
2022-07-25T18:17:03.870Z,5.90
2022-07-25T18:22:06.777Z,7.30
2022-07-25T18:27:09.648Z,6.28
2022-07-25T18:32:12.389Z,5.30
2022-07-25T18:37:15.379Z,6.88
2022-07-25T18:42:18.859Z,7.73
2022-07-25T18:47:24.806Z,6.90
2022-07-25T18:52:35.395Z,7.93
2022-07-25T18:57:38.702Z,6.23
2022-07-25T19:02:41.675Z,7.97
2022-07-25T19:07:44.452Z,7.90
2022-07-25T19:12:47.283Z,7.68
2022-07-25T19:17:50.430Z,6.28
2022-07-25T19:22:53.523Z,6.30
2022-07-25T19:27:56.230Z,6.70
2022-07-25T19:32:59.006Z,6.17
2022-07-25T19:38:02.580Z,5.05
2022-07-25T19:43:05.766Z,6.15
2022-07-25T19:48:08.720Z,5.90
2022-07-25T19:53:12.034Z,6.43
2022-07-25T19:58:15.127Z,6.20
2022-07-25T20:03:23.143Z,6.57
2022-07-25T20:08:26.563Z,6.50
2022-07-25T20:13:29.976Z,5.73
2022-07-25T20:18:33.025Z,5.50
2022-07-25T20:23:35.890Z,5.93
2022-07-25T20:28:38.879Z,6.95
2022-07-25T20:33:41.695Z,5.88
2022-07-25T20:38:44.748Z,6.53
2022-07-25T20:43:47.574Z,6.10
2022-07-25T20:48:51.212Z,5.33
2022-07-25T20:53:54.111Z,6.70
2022-07-25T20:58:57.183Z,7.45
2022-07-25T21:04:03.196Z,6.27
2022-07-25T21:09:08.987Z,6.88
2022-07-25T21:14:12.219Z,6.60
2022-07-25T21:19:15.157Z,5.90
2022-07-25T21:24:18.086Z,6.63
2022-07-25T21:29:20.942Z,10.10
2022-07-25T21:34:23.962Z,7.47
2022-07-25T21:39:26.783Z,7.10
2022-07-25T21:44:29.666Z,6.55
2022-07-25T21:49:50.979Z,7.72
2022-07-25T21:54:53.966Z,7.40
2022-07-25T21:59:56.986Z,8.32
2022-07-25T22:04:59.911Z,7.27
2022-07-25T22:10:02.945Z,7.68
2022-07-25T22:15:07.741Z,7.78
2022-07-25T22:20:15.132Z,9.60
2022-07-25T22:25:18.504Z,9.05
2022-07-25T22:30:21.385Z,7.77
2022-07-25T22:35:24.204Z,8.25
2022-07-25T22:40:26.945Z,8.77
2022-07-25T22:45:29.709Z,7.83
2022-07-25T22:50:32.461Z,8.38
2022-07-25T22:55:35.376Z,8.40
2022-07-25T23:00:38.406Z,6.82
2022-07-25T23:05:41.138Z,8.85
2022-07-25T23:10:43.860Z,7.30
2022-07-25T23:15:49.928Z,6.65
2022-07-25T23:20:53.534Z,9.07
2022-07-25T23:25:56.215Z,8.48
2022-07-25T23:30:58.934Z,8.63
2022-07-25T23:36:02.179Z,8.10
2022-07-25T23:41:05.065Z,8.68
2022-07-25T23:46:07.812Z,7.57
2022-07-25T23:51:10.814Z,9.25
2022-07-25T23:56:18.624Z,9.00
